Time;durP1;ratioP1;P1;durP2;ratioP2;P2;SDS_P1;SDS_P2;PMS_P1;PMS_P2;Temp;Humidity;BMP_temperature;BMP_pressure;BME280_temperature;BME280_humidity;BME280_pressure;Samples;Min_cycle;Max_cycle;Signal;HPM_P1;HPM_P2
2021/12/09 00:01:01;;;;;;;49.47;25.63;;;;;;;-0.38;100.00;-23804.38;5052416;28;20202;-74
2021/12/09 00:03:31;;;;;;;52.60;28.53;;;;;;;0.14;100.00;-23819.13;5051746;28;20204;-74
2021/12/09 00:05:57;;;;;;;50.07;27.60;;;;;;;0.06;100.00;-23816.69;5052251;28;20261;-73
2021/12/09 00:08:26;;;;;;;55.20;30.57;;;;;;;-0.29;100.00;-23806.94;5052520;28;20175;-73
2021/12/09 00:10:53;;;;;;;49.67;27.60;;;;;;;0.08;100.00;-23817.25;5052143;28;20174;-74
2021/12/09 00:13:19;;;;;;;50.80;27.80;;;;;;;-0.27;100.00;-23807.50;5052099;28;20252;-74
2021/12/09 00:15:44;;;;;;;51.40;27.40;;;;;;;0.13;100.00;-23818.84;5050651;28;20644;-74
2021/12/09 00:18:10;;;;;;;53.87;28.50;;;;;;;0.04;100.00;-23816.13;5051087;28;20175;-73
2021/12/09 00:20:35;;;;;;;53.53;29.97;;;;;;;0.08;100.00;-23817.25;5051062;28;20291;-76
2021/12/09 00:23:01;;;;;;;51.80;28.90;;;;;;;-0.10;100.00;-23812.38;5054244;28;20210;-74
2021/12/09 00:25:27;;;;;;;57.03;29.90;;;;;;;0.13;100.00;-23818.69;5054702;28;20174;-75
2021/12/09 00:27:53;;;;;;;51.03;27.67;;;;;;;-0.10;100.00;-23812.25;5054838;28;20176;-73
2021/12/09 00:30:20;;;;;;;50.47;28.43;;;;;;;-0.30;100.00;-23806.66;5054656;28;20186;-75
2021/12/09 00:32:46;;;;;;;57.20;30.20;;;;;;;-0.19;100.00;-23809.66;5056602;28;20240;-73
2021/12/09 00:35:15;;;;;;;56.73;32.30;;;;;;;-0.19;100.00;-23809.66;5054564;28;20277;-73
2021/12/09 00:37:52;;;;;;;47.20;26.13;;;;;;;0.06;100.00;-23816.69;5055863;28;20228;-72
2021/12/09 00:40:17;;;;;;;48.83;26.20;;;;;;;0.04;100.00;-23816.25;5056978;28;20285;-72
2021/12/09 00:42:42;;;;;;;57.63;30.83;;;;;;;-0.50;100.00;-23801.06;5056172;28;20760;-73
2021/12/09 00:45:08;;;;;;;52.67;30.03;;;;;;;0.05;100.00;-23816.53;5055655;28;20623;-73
2021/12/09 00:47:33;;;;;;;51.43;27.73;;;;;;;-0.53;100.00;-23800.06;5055114;28;20180;-72
2021/12/09 00:49:59;;;;;;;54.87;27.87;;;;;;;-0.23;100.00;-23808.53;5054350;28;20631;-72
2021/12/09 00:52:25;;;;;;;53.67;27.27;;;;;;;-0.06;100.00;-23813.53;5055653;28;20178;-71
2021/12/09 00:54:52;;;;;;;55.53;27.53;;;;;;;-0.26;100.00;-23807.81;5054641;28;20175;-72
2021/12/09 00:57:18;;;;;;;50.37;27.70;;;;;;;-0.27;100.00;-23807.50;5054150;28;20175;-73
2021/12/09 00:59:43;;;;;;;46.07;26.00;;;;;;;-0.70;100.00;-23795.19;5085922;28;20256;-72
2021/12/09 01:02:10;;;;;;;49.13;26.13;;;;;;;-0.67;100.00;-23796.19;5055129;28;20187;-72
2021/12/09 01:04:39;;;;;;;50.53;26.87;;;;;;;-0.56;100.00;-23799.34;5055804;28;20289;-74
2021/12/09 01:07:06;;;;;;;49.90;25.53;;;;;;;-0.53;100.00;-23800.22;5054599;28;20243;-73
2021/12/09 01:09:32;;;;;;;52.27;26.93;;;;;;;-0.06;100.00;-23813.53;5055272;28;20261;-73
2021/12/09 01:11:58;;;;;;;50.37;25.60;;;;;;;-0.43;100.00;-23802.78;5053797;28;20567;-73
2021/12/09 01:14:24;;;;;;;49.33;25.20;;;;;;;-0.24;100.00;-23808.38;5054868;28;20177;-72
2021/12/09 01:16:49;;;;;;;46.87;25.57;;;;;;;-0.49;100.00;-23801.34;5055381;28;20263;-73
2021/12/09 01:19:16;;;;;;;48.30;26.03;;;;;;;-0.30;100.00;-23806.66;5055803;28;20182;-73
2021/12/09 01:21:42;;;;;;;50.63;26.60;;;;;;;-0.85;100.00;-23791.03;5054103;28;20170;-73
2021/12/09 01:24:08;;;;;;;52.27;26.20;;;;;;;-0.84;100.00;-23791.19;5055575;28;20226;-72
2021/12/09 01:26:34;;;;;;;49.57;26.77;;;;;;;-0.87;100.00;-23790.47;5056978;28;20178;-72
2021/12/09 01:29:05;;;;;;;51.37;26.63;;;;;;;-0.31;100.00;-23806.38;5057855;28;20236;-71
2021/12/09 01:31:35;;;;;;;49.73;26.17;;;;;;;-0.49;100.00;-23801.34;5058600;28;20155;-73
2021/12/09 01:34:03;;;;;;;53.37;26.70;;;;;;;-0.40;100.00;-23803.66;5054940;28;20285;-73
2021/12/09 01:36:32;;;;;;;49.83;27.43;;;;;;;-0.50;100.00;-23801.06;5052409;28;20183;-73
2021/12/09 01:38:57;;;;;;;56.93;29.40;;;;;;;-0.70;100.00;-23795.34;5052941;28;20170;-72
2021/12/09 01:41:23;;;;;;;50.13;26.80;;;;;;;-0.47;100.00;-23801.78;5054071;28;20244;-73
2021/12/09 01:43:49;;;;;;;57.80;32.57;;;;;;;-0.59;100.00;-23798.34;5053061;28;20654;-73
2021/12/09 01:46:18;;;;;;;45.40;24.03;;;;;;;-0.33;100.00;-23805.66;5054160;28;20183;-74
2021/12/09 01:48:49;;;;;;;43.73;24.37;;;;;;;-0.20;100.00;-23809.53;5054028;28;20645;-75
2021/12/09 01:51:16;;;;;;;50.00;26.77;;;;;;;-0.28;100.00;-23807.22;5054375;28;20172;-76
2021/12/09 01:53:47;;;;;;;51.37;29.17;;;;;;;-0.17;100.00;-23810.25;5053097;28;20277;-75
2021/12/09 01:56:21;;;;;;;43.97;23.43;;;;;;;-0.58;100.00;-23798.78;5053930;28;20168;-75
2021/12/09 01:58:48;;;;;;;51.70;29.47;;;;;;;-0.66;100.00;-23796.34;5054096;28;20159;-74
2021/12/09 02:01:14;;;;;;;48.10;26.00;;;;;;;-0.67;100.00;-23796.06;5051399;28;20218;-72
2021/12/09 02:03:39;;;;;;;50.37;27.10;;;;;;;-0.27;100.00;-23807.50;5053536;28;20635;-73
2021/12/09 02:06:05;;;;;;;51.33;26.93;;;;;;;-0.64;100.00;-23797.06;5053576;28;20183;-73
2021/12/09 02:08:31;;;;;;;50.23;24.17;;;;;;;-0.17;100.00;-23810.25;5053414;28;20202;-72
2021/12/09 02:10:56;;;;;;;43.23;23.07;;;;;;;-0.42;100.00;-23803.22;5086533;28;20191;-73
2021/12/09 02:13:22;;;;;;;44.30;23.70;;;;;;;-0.22;100.00;-23808.81;5054408;28;20266;-73
2021/12/09 02:15:51;;;;;;;47.27;24.67;;;;;;;-0.63;100.00;-23797.34;5054277;28;20205;-74
2021/12/09 02:18:17;;;;;;;45.53;23.93;;;;;;;-0.41;100.00;-23803.34;5054626;28;20258;-74
2021/12/09 02:20:44;;;;;;;44.60;24.13;;;;;;;-0.33;100.00;-23805.81;5051876;28;20287;-72
2021/12/09 02:23:15;;;;;;;41.97;22.63;;;;;;;-0.85;100.00;-23790.91;5052355;28;20214;-73
2021/12/09 02:25:44;;;;;;;45.67;24.27;;;;;;;-0.94;100.00;-23788.59;5054244;28;20167;-74
2021/12/09 02:28:15;;;;;;;46.43;24.17;;;;;;;-0.43;100.00;-23802.94;5053856;28;20189;-73
2021/12/09 02:30:42;;;;;;;47.93;24.57;;;;;;;-0.62;100.00;-23797.50;5054012;28;20158;-73
2021/12/09 02:33:08;;;;;;;45.27;23.47;;;;;;;-0.47;100.00;-23801.94;5053175;28;20178;-73
2021/12/09 02:35:34;;;;;;;47.10;25.43;;;;;;;-0.80;100.00;-23792.31;5054379;28;20179;-73
2021/12/09 02:37:59;;;;;;;42.37;22.70;;;;;;;-0.16;100.00;-23810.66;5053944;28;20171;-71
2021/12/09 02:40:24;;;;;;;41.63;23.33;;;;;;;-0.76;100.00;-23793.63;5052619;28;20595;-74
2021/12/09 02:42:50;;;;;;;44.50;23.97;;;;;;;-0.53;100.00;-23800.22;5054317;28;20233;-71
2021/12/09 02:45:16;;;;;;;42.43;23.10;;;;;;;-0.32;100.00;-23806.09;5053239;28;20170;-74
2021/12/09 02:47:41;;;;;;;43.60;22.50;;;;;;;-0.43;100.00;-23802.78;5052876;28;20190;-72
2021/12/09 02:50:07;;;;;;;42.47;22.70;;;;;;;-0.43;100.00;-23802.94;5053625;28;20174;-72
2021/12/09 02:52:33;;;;;;;45.77;22.83;;;;;;;-0.69;100.00;-23795.47;5053727;28;20269;-73
2021/12/09 02:54:59;;;;;;;40.50;21.17;;;;;;;-0.60;100.00;-23798.06;5054160;28;20608;-72
2021/12/09 02:57:25;;;;;;;46.83;23.20;;;;;;;-0.59;100.00;-23798.50;5055095;28;20174;-72
2021/12/09 02:59:51;;;;;;;44.57;22.70;;;;;;;-1.49;100.00;-23772.97;5052975;28;20191;-73
2021/12/09 03:02:19;;;;;;;41.43;22.57;;;;;;;-0.94;100.00;-23788.59;5053801;28;20517;-73
2021/12/09 03:04:51;;;;;;;45.30;24.73;;;;;;;-0.58;100.00;-23798.78;5053703;28;20175;-72
2021/12/09 03:07:26;;;;;;;46.27;26.80;;;;;;;-1.10;100.00;-23783.88;5053861;28;20229;-72
2021/12/09 03:09:56;;;;;;;49.20;25.90;;;;;;;-0.64;100.00;-23797.06;5051795;28;20595;-73
2021/12/09 03:12:28;;;;;;;45.63;23.80;;;;;;;-0.57;100.00;-23798.91;5052843;28;20170;-73
2021/12/09 03:14:53;;;;;;;45.13;25.20;;;;;;;-1.86;100.00;-23762.50;5053507;28;20265;-73
2021/12/09 03:17:19;;;;;;;41.07;22.20;;;;;;;-0.56;100.00;-23799.34;5053010;28;20175;-74
2021/12/09 03:19:45;;;;;;;44.50;22.53;;;;;;;-0.80;100.00;-23792.31;5052648;28;20187;-74
2021/12/09 03:22:12;;;;;;;38.27;22.53;;;;;;;-1.34;100.00;-23777.13;5051523;28;20179;-72
2021/12/09 03:24:37;;;;;;;40.63;22.33;;;;;;;-2.01;100.00;-23758.19;5051489;28;20570;-73
2021/12/09 03:27:03;;;;;;;44.57;23.17;;;;;;;-0.80;100.00;-23792.31;5052708;28;20177;-73
2021/12/09 03:29:30;;;;;;;39.57;21.70;;;;;;;-0.86;100.00;-23790.59;5052275;28;20186;-73
2021/12/09 03:32:02;;;;;;;43.80;25.10;;;;;;;-1.15;100.00;-23782.44;5051171;28;20215;-72
2021/12/09 03:34:30;;;;;;;50.93;27.83;;;;;;;-1.15;100.00;-23782.56;5052722;28;20522;-72
2021/12/09 03:36:57;;;;;;;42.80;23.47;;;;;;;-0.81;100.00;-23792.03;5052008;28;20225;-73
2021/12/09 03:39:25;;;;;;;42.23;22.20;;;;;;;-0.95;100.00;-23788.31;5052470;28;20217;-73
2021/12/09 03:41:53;;;;;;;42.40;22.27;;;;;;;-0.99;100.00;-23787.03;5052542;28;20355;-73
2021/12/09 03:44:19;;;;;;;42.07;22.70;;;;;;;-0.85;100.00;-23790.91;5052178;28;20208;-72
2021/12/09 03:46:45;;;;;;;39.00;21.70;;;;;;;-1.07;100.00;-23784.72;5051992;28;20177;-72
2021/12/09 03:49:10;;;;;;;41.27;22.53;;;;;;;-0.95;100.00;-23788.16;5050842;28;20320;-73
2021/12/09 03:51:36;;;;;;;42.53;22.67;;;;;;;-0.93;100.00;-23788.88;5052132;28;20272;-73
2021/12/09 03:54:07;;;;;;;44.93;25.30;;;;;;;-0.98;100.00;-23787.44;5052142;28;20586;-73
2021/12/09 03:56:34;;;;;;;52.30;27.57;;;;;;;-0.99;100.00;-23787.03;5050167;28;20179;-74
2021/12/09 03:59:00;;;;;;;53.90;28.67;;;;;;;-1.05;100.00;-23785.31;5052003;28;20182;-73
2021/12/09 04:01:25;;;;;;;60.67;31.90;;;;;;;-1.13;100.00;-23783.16;5051245;28;20320;-74
2021/12/09 04:03:51;;;;;;;49.40;26.20;;;;;;;-1.23;100.00;-23780.13;5050515;28;20198;-74
2021/12/09 04:06:17;;;;;;;51.87;26.27;;;;;;;-0.88;100.00;-23790.31;5050953;28;20174;-73
2021/12/09 04:08:42;;;;;;;54.13;25.70;;;;;;;-0.94;100.00;-23788.47;5052252;28;20173;-73
2021/12/09 04:11:10;;;;;;;54.87;28.63;;;;;;;-0.99;100.00;-23787.16;5051359;28;20201;-74
2021/12/09 04:13:36;;;;;;;46.77;24.73;;;;;;;-1.49;100.00;-23772.81;5051868;28;20267;-73
2021/12/09 04:16:04;;;;;;;52.57;25.30;;;;;;;-1.08;100.00;-23784.44;5051699;28;20190;-72
2021/12/09 04:18:30;;;;;;;52.40;27.27;;;;;;;-1.12;100.00;-23783.28;5050742;28;20186;-73
2021/12/09 04:20:56;;;;;;;52.80;26.17;;;;;;;-1.13;100.00;-23783.00;5052177;28;20236;-71
2021/12/09 04:23:21;;;;;;;53.57;25.80;;;;;;;-1.11;100.00;-23783.59;5050510;28;20661;-71
2021/12/09 04:25:47;;;;;;;48.30;24.90;;;;;;;-1.22;100.00;-23780.44;5051552;28;20181;-72
2021/12/09 04:28:12;;;;;;;53.60;27.13;;;;;;;-1.21;100.00;-23780.84;5051468;28;20185;-72
2021/12/09 04:30:40;;;;;;;52.77;26.47;;;;;;;-0.84;100.00;-23791.19;5050298;28;20261;-71
2021/12/09 04:33:05;;;;;;;51.30;25.40;;;;;;;-0.70;100.00;-23795.19;5051582;28;20231;-73
2021/12/09 04:35:31;;;;;;;46.57;25.00;;;;;;;-1.25;100.00;-23779.72;5051549;28;20612;-71
2021/12/09 04:37:56;;;;;;;54.63;26.30;;;;;;;-1.15;100.00;-23782.56;5050152;28;20267;-71
2021/12/09 04:40:22;;;;;;;54.47;30.37;;;;;;;-1.04;100.00;-23785.72;5050355;28;20174;-72
2021/12/09 04:42:47;;;;;;;54.03;28.67;;;;;;;-1.22;100.00;-23780.56;5052029;28;20265;-72
2021/12/09 04:45:13;;;;;;;53.27;28.17;;;;;;;-1.51;100.00;-23772.25;5050657;28;20273;-73
2021/12/09 04:47:40;;;;;;;55.20;28.60;;;;;;;-1.47;100.00;-23773.41;5051393;28;20268;-71
2021/12/09 04:50:08;;;;;;;48.23;25.37;;;;;;;-1.48;100.00;-23773.09;5051993;28;20181;-72
2021/12/09 04:52:33;;;;;;;54.90;28.27;;;;;;;-1.15;100.00;-23782.44;5052114;28;20200;-73
2021/12/09 04:54:59;;;;;;;56.10;27.87;;;;;;;-1.53;100.00;-23771.69;5052223;28;20633;-73
2021/12/09 04:57:24;;;;;;;47.70;24.67;;;;;;;-1.24;100.00;-23780.00;5051660;28;20182;-72
2021/12/09 04:59:51;;;;;;;48.33;24.97;;;;;;;-1.19;100.00;-23781.28;5051588;28;20177;-73
2021/12/09 05:05:15;;;;;;;49.87;24.27;;;;;;;-0.79;100.00;-23792.63;5050164;28;20198;-72
2021/12/09 05:07:42;;;;;;;48.70;24.67;;;;;;;-1.25;100.00;-23779.72;5050296;28;20177;-71
2021/12/09 05:10:08;;;;;;;43.60;22.67;;;;;;;-1.11;100.00;-23783.72;5053275;28;20268;-71
2021/12/09 05:12:33;;;;;;;49.37;24.60;;;;;;;-1.28;100.00;-23778.69;5054565;28;20266;-73
2021/12/09 05:14:59;;;;;;;40.50;22.47;;;;;;;-1.61;100.00;-23769.38;5054295;28;20190;-73
2021/12/09 05:17:24;;;;;;;49.93;23.47;;;;;;;-1.32;100.00;-23777.69;5053824;28;20180;-72
2021/12/09 05:19:49;;;;;;;47.53;25.33;;;;;;;-1.19;100.00;-23781.44;5052789;28;20213;-73
2021/12/09 05:22:16;;;;;;;52.87;27.70;;;;;;;-1.09;100.00;-23784.28;5054140;28;20187;-73
2021/12/09 05:24:42;;;;;;;51.90;27.27;;;;;;;-1.01;100.00;-23786.59;5053116;28;20320;-73
2021/12/09 05:27:09;;;;;;;49.40;27.57;;;;;;;-1.20;100.00;-23781.13;5036353;28;20257;-72
2021/12/09 05:29:40;;;;;;;75.97;37.20;;;;;;;-1.08;100.00;-23784.59;5053711;28;20178;-75
2021/12/09 05:32:11;;;;;;;70.53;35.60;;;;;;;-1.24;100.00;-23780.00;5054287;28;20254;-75
2021/12/09 05:34:44;;;;;;;73.53;33.53;;;;;;;-1.00;100.00;-23786.88;5054222;28;20684;-75
2021/12/09 05:37:15;;;;;;;70.57;36.10;;;;;;;-1.51;100.00;-23772.38;5053736;28;20261;-74
2021/12/09 05:39:42;;;;;;;62.93;33.60;;;;;;;-1.09;100.00;-23784.28;5052011;28;20182;-74
2021/12/09 05:42:09;;;;;;;66.83;33.40;;;;;;;-1.05;100.00;-23785.44;5052530;28;20254;-73
2021/12/09 05:44:36;;;;;;;66.70;32.67;;;;;;;-1.68;100.00;-23767.38;5054052;28;20233;-75
2021/12/09 05:47:05;;;;;;;78.60;35.80;;;;;;;-1.15;100.00;-23782.44;5054500;28;20181;-75
2021/12/09 05:49:32;;;;;;;72.40;36.30;;;;;;;-1.01;100.00;-23786.59;5054109;28;20195;-74
2021/12/09 05:51:58;;;;;;;83.67;42.60;;;;;;;-1.35;100.00;-23776.84;5052767;28;20174;-73
2021/12/09 05:54:23;;;;;;;81.17;44.00;;;;;;;-1.56;100.00;-23770.81;5053852;28;20180;-75
2021/12/09 05:56:50;;;;;;;77.60;39.57;;;;;;;-1.53;100.00;-23771.69;5052673;28;20183;-75
2021/12/09 05:59:16;;;;;;;80.77;42.07;;;;;;;-1.05;100.00;-23785.44;5052395;28;20181;-75
2021/12/09 06:01:42;;;;;;;96.30;52.67;;;;;;;-0.90;100.00;-23789.75;5050098;28;20184;-75
2021/12/09 06:04:09;;;;;;;64.13;35.07;;;;;;;-1.00;100.00;-23786.88;5052873;28;20295;-76
2021/12/09 06:06:35;;;;;;;68.43;37.57;;;;;;;-2.11;100.00;-23755.31;5051926;28;20182;-75
2021/12/09 06:09:03;;;;;;;64.20;35.00;;;;;;;-0.75;100.00;-23793.75;5053202;28;20184;-76
2021/12/09 06:11:34;;;;;;;64.77;29.70;;;;;;;-0.71;100.00;-23795.06;5052017;28;20294;-76
2021/12/09 06:13:59;;;;;;;55.17;27.93;;;;;;;-0.90;100.00;-23789.59;5051864;28;20174;-77
2021/12/09 06:16:25;;;;;;;51.63;27.93;;;;;;;-0.62;100.00;-23797.50;5053543;28;20185;-76
2021/12/09 06:18:51;;;;;;;47.17;25.30;;;;;;;-0.94;100.00;-23788.47;5053594;28;20173;-76
2021/12/09 06:21:18;;;;;;;44.07;23.97;;;;;;;-0.93;100.00;-23788.75;5052271;28;20173;-76
2021/12/09 06:23:44;;;;;;;53.73;23.80;;;;;;;-0.83;100.00;-23791.59;5053493;28;20201;-76
2021/12/09 06:26:10;;;;;;;49.40;23.83;;;;;;;-0.75;100.00;-23793.75;5052268;28;20558;-78
2021/12/09 06:28:36;;;;;;;40.97;22.17;;;;;;;-0.66;100.00;-23796.47;5052254;28;20249;-77
2021/12/09 06:31:01;;;;;;;42.80;23.77;;;;;;;-0.56;100.00;-23799.22;5053667;28;20177;-79
2021/12/09 06:33:27;;;;;;;48.77;26.30;;;;;;;-0.88;100.00;-23790.31;5041896;28;20186;-76
2021/12/09 06:35:53;;;;;;;48.43;24.77;;;;;;;-0.86;100.00;-23790.75;5031593;28;20178;-76
2021/12/09 06:38:18;;;;;;;47.13;23.60;;;;;;;-0.69;100.00;-23795.63;5033511;28;20182;-75
2021/12/09 06:40:44;;;;;;;56.17;28.53;;;;;;;-0.13;100.00;-23811.53;5064702;28;20179;-76
2021/12/09 06:43:10;;;;;;;82.23;39.20;;;;;;;-0.09;100.00;-23812.66;5033474;28;20201;-75
2021/12/09 06:45:36;;;;;;;77.27;36.63;;;;;;;-0.64;100.00;-23796.91;5032939;28;20179;-77
2021/12/09 06:48:02;;;;;;;67.47;32.67;;;;;;;0.11;100.00;-23818.13;5032234;28;20183;-77
2021/12/09 06:50:28;;;;;;;56.97;29.20;;;;;;;0.27;100.00;-23822.69;5033569;28;20249;-76
2021/12/09 06:52:53;;;;;;;61.83;29.77;;;;;;;0.03;100.00;-23815.81;5033848;28;20167;-75
2021/12/09 06:55:20;;;;;;;54.60;25.57;;;;;;;0.56;100.00;-23830.84;5034248;28;20252;-73
2021/12/09 06:57:55;;;;;;;56.63;27.63;;;;;;;0.58;100.00;-23831.56;5035178;28;20214;-77
2021/12/09 07:00:27;;;;;;;44.03;21.67;;;;;;;0.69;100.00;-23834.72;5067403;28;20191;-76
2021/12/09 07:02:54;;;;;;;40.20;20.90;;;;;;;0.54;100.00;-23830.44;5035664;28;20674;-76
2021/12/09 07:05:22;;;;;;;49.90;26.03;;;;;;;0.60;100.00;-23832.13;5046428;28;20183;-75
2021/12/09 07:07:49;;;;;;;65.87;27.77;;;;;;;0.71;100.00;-23835.16;5054221;28;20201;-75
2021/12/09 07:10:15;;;;;;;55.17;26.70;;;;;;;0.89;100.00;-23840.44;5053507;28;20573;-74
2021/12/09 07:12:41;;;;;;;44.07;21.80;;;;;;;0.67;100.00;-23834.16;5050762;28;20186;-75
2021/12/09 07:15:14;;;;;;;41.97;21.43;;;;;;;1.28;100.00;-23851.44;5052806;28;20182;-75
2021/12/09 07:17:40;;;;;;;40.67;20.10;;;;;;;1.44;100.00;-23855.88;5051234;28;20248;-74
2021/12/09 07:20:17;;;;;;;41.03;20.73;;;;;;;1.38;100.00;-23854.16;5052477;28;20181;-76
2021/12/09 07:22:45;;;;;;;42.10;20.47;;;;;;;1.55;100.00;-23858.88;5051718;28;20721;-75
2021/12/09 07:25:12;;;;;;;44.23;20.47;;;;;;;1.42;100.00;-23855.16;5051732;28;20188;-74
2021/12/09 07:27:37;;;;;;;36.73;19.80;;;;;;;1.09;100.00;-23845.88;5051616;28;20183;-75
2021/12/09 07:30:05;;;;;;;36.63;19.67;;;;;;;1.76;100.00;-23865.03;5052214;28;20182;-74
2021/12/09 07:32:32;;;;;;;32.60;18.27;;;;;;;1.86;100.00;-23867.59;5052395;28;20254;-74
2021/12/09 07:34:57;;;;;;;33.60;17.77;;;;;;;1.91;100.00;-23869.03;5053502;28;20184;-74
2021/12/09 07:37:23;;;;;;;34.00;18.57;;;;;;;2.06;100.00;-23873.31;5051626;28;20180;-75
2021/12/09 07:39:48;;;;;;;34.83;20.37;;;;;;;1.89;100.00;-23868.59;5052377;28;20178;-74
2021/12/09 07:42:15;;;;;;;37.37;20.17;;;;;;;2.17;100.00;-23876.59;5050936;28;20233;-76
2021/12/09 07:44:40;;;;;;;39.33;21.67;;;;;;;2.54;100.00;-23886.88;5052268;28;20240;-76
2021/12/09 07:47:06;;;;;;;35.30;22.10;;;;;;;2.51;100.00;-23886.16;5051190;28;20190;-75
2021/12/09 07:49:32;;;;;;;40.17;22.87;;;;;;;2.81;100.00;-23894.59;5050937;28;20189;-77
2021/12/09 07:51:57;;;;;;;40.43;24.80;;;;;;;2.74;100.00;-23892.44;5050559;28;20244;-76
2021/12/09 07:54:26;;;;;;;45.60;24.50;;;;;;;3.26;100.00;-23907.28;5051936;28;20178;-74
2021/12/09 07:56:51;;;;;;;43.13;24.63;;;;;;;3.03;100.00;-23900.72;5050662;28;20606;-75
2021/12/09 07:59:17;;;;;;;45.40;25.27;;;;;;;2.77;100.00;-23893.31;5052187;28;20179;-74
2021/12/09 08:01:42;;;;;;;44.40;24.90;;;;;;;2.83;100.00;-23895.00;5051889;28;20183;-77
2021/12/09 08:04:10;;;;;;;41.77;24.20;;;;;;;2.67;100.00;-23890.59;5051780;28;20230;-75
2021/12/09 08:06:35;;;;;;;38.27;22.77;;;;;;;3.25;100.00;-23907.00;5051805;28;20174;-74
2021/12/09 08:09:05;;;;;;;40.40;22.10;;;;;;;3.32;100.00;-23908.84;5050852;28;20182;-74
2021/12/09 08:11:33;;;;;;;38.67;22.23;;;;;;;3.32;100.00;-23909.00;5051738;28;20652;-74
2021/12/09 08:13:59;;;;;;;43.43;24.13;;;;;;;3.15;100.00;-23904.00;5051703;28;20190;-74
2021/12/09 08:16:24;;;;;;;41.17;22.80;;;;;;;3.46;100.00;-23912.97;5050617;28;20214;-76
2021/12/09 08:18:56;;;;;;;39.80;23.03;;;;;;;3.64;100.00;-23917.81;5050404;28;20178;-75
2021/12/09 08:21:24;;;;;;;41.07;23.17;;;;;;;3.14;100.00;-23903.72;5051929;28;20194;-75
2021/12/09 08:23:51;;;;;;;41.53;23.20;;;;;;;3.63;100.00;-23917.69;5051583;28;20226;-76
2021/12/09 08:26:17;;;;;;;42.80;23.10;;;;;;;3.33;100.00;-23909.13;5050219;28;20630;-77
2021/12/09 08:28:43;;;;;;;37.47;21.73;;;;;;;3.75;100.00;-23920.97;5051559;28;20182;-75
2021/12/09 08:31:08;;;;;;;35.03;19.83;;;;;;;4.16;100.00;-23932.63;5049951;28;20656;-75
2021/12/09 08:33:33;;;;;;;35.17;20.17;;;;;;;3.50;100.00;-23913.97;5051627;28;20174;-75
2021/12/09 08:35:59;;;;;;;35.40;20.00;;;;;;;3.72;100.00;-23920.25;5051638;28;20171;-75
2021/12/09 08:38:25;;;;;;;31.87;18.50;;;;;;;3.72;100.00;-23920.25;5050961;28;20551;-74
2021/12/09 08:40:53;;;;;;;29.50;18.40;;;;;;;4.09;100.00;-23930.66;5050689;28;20272;-74
2021/12/09 08:43:19;;;;;;;27.40;16.67;;;;;;;3.70;100.00;-23919.53;5051807;28;20301;-74
2021/12/09 08:45:46;;;;;;;28.03;16.87;;;;;;;3.56;100.00;-23915.81;5055492;28;20179;-75
2021/12/09 08:48:12;;;;;;;35.10;19.13;;;;;;;3.96;100.00;-23926.94;5055099;28;20220;-75
2021/12/09 08:50:43;;;;;;;30.73;17.80;;;;;;;3.87;100.00;-23924.53;5055140;28;20187;-75
2021/12/09 08:53:16;;;;;;;29.20;17.47;;;;;;;4.19;100.00;-23933.50;5055087;28;20158;-74
2021/12/09 08:55:42;;;;;;;29.53;17.33;;;;;;;4.46;100.00;-23941.03;5054099;28;20187;-75
2021/12/09 08:58:08;;;;;;;30.27;17.90;;;;;;;4.19;100.00;-23933.34;5053622;28;20179;-75
2021/12/09 09:00:35;;;;;;;30.37;18.60;;;;;;;4.50;100.00;-23942.19;5055064;28;20182;-75
2021/12/09 09:03:02;;;;;;;32.20;17.33;;;;;;;4.48;100.00;-23941.47;5055126;28;20198;-75
2021/12/09 09:05:29;;;;;;;30.27;18.23;;;;;;;4.93;100.00;-23954.28;5055226;28;20547;-75
2021/12/09 09:07:55;;;;;;;36.17;19.23;;;;;;;4.89;100.00;-23953.13;5054236;28;20650;-75
2021/12/09 09:10:24;;;;;;;30.97;18.10;;;;;;;5.18;100.00;-23961.25;5054935;28;20185;-77
2021/12/09 09:12:50;;;;;;;28.90;18.07;;;;;;;5.15;100.00;-23960.41;5054568;28;20182;-77
2021/12/09 09:15:19;;;;;;;30.17;18.03;;;;;;;5.30;100.00;-23964.81;5055005;28;20175;-77
2021/12/09 09:17:45;;;;;;;33.53;19.17;;;;;;;5.09;100.00;-23958.81;5054584;28;20170;-75
2021/12/09 09:20:13;;;;;;;30.63;18.53;;;;;;;5.55;100.00;-23971.75;5054845;28;20196;-75
2021/12/09 09:22:40;;;;;;;32.93;19.20;;;;;;;5.22;100.00;-23962.38;5052970;28;20190;-75
2021/12/09 09:25:09;;;;;;;34.53;18.77;;;;;;;5.19;100.00;-23961.66;5054458;28;20325;-75
2021/12/09 09:27:35;;;;;;;33.40;20.17;;;;;;;5.57;100.00;-23972.19;5054202;28;20549;-75
2021/12/09 09:30:02;;;;;;;35.07;21.03;;;;;;;5.78;100.00;-23978.31;5054332;28;20175;-74
2021/12/09 09:32:28;;;;;;;34.07;21.07;;;;;;;5.62;100.00;-23973.63;5052800;28;20178;-75
2021/12/09 09:34:54;;;;;;;35.40;20.73;;;;;;;5.48;100.00;-23969.78;5054203;28;20197;-75
2021/12/09 09:37:20;;;;;;;33.00;20.23;;;;;;;5.64;100.00;-23974.31;5053999;28;20174;-75
2021/12/09 09:39:47;;;;;;;32.03;18.90;;;;;;;6.11;100.00;-23987.41;5054326;28;20212;-75
2021/12/09 09:44:48;;;;;;;31.30;17.97;;;;;;;6.52;100.00;-23999.03;5052061;28;20218;-74
2021/12/09 09:47:15;;;;;;;31.53;19.30;;;;;;;6.46;100.00;-23997.34;5053435;28;20633;-75
2021/12/09 09:49:41;;;;;;;35.63;19.70;;;;;;;6.79;100.00;-24006.56;5053239;28;20182;-75
2021/12/09 09:52:08;;;;;;;35.93;19.57;;;;;;;7.06;100.00;-24014.22;5053670;28;20175;-75
2021/12/09 09:54:38;;;;;;;35.57;19.50;;;;;;;6.80;100.00;-24006.84;5050734;28;20197;-74
2021/12/09 09:57:05;;;;;;;33.50;20.27;;;;;;;6.44;100.00;-23996.63;5053423;28;20331;-74
2021/12/09 09:59:31;;;;;;;34.27;20.10;;;;;;;6.81;100.00;-24007.00;5053272;28;20554;-75
2021/12/09 10:01:56;;;;;;;32.33;19.70;;;;;;;6.79;100.00;-24006.56;5052046;28;20191;-75
2021/12/09 10:05:07;;;;;;;32.57;19.77;;;;;;;7.10;100.00;-24015.34;5053326;28;20209;-75
2021/12/09 10:07:15;;;;;;;32.37;20.33;;;;;;;7.07;100.00;-24014.38;5050256;28;20541;-75
2021/12/09 10:09:41;;;;;;;32.07;19.37;;;;;;;7.65;100.00;-24030.66;5053519;28;20177;-75
2021/12/09 10:12:07;;;;;;;32.30;19.40;;;;;;;7.81;100.00;-24035.22;5053282;28;20238;-76
2021/12/09 10:14:35;;;;;;;30.63;18.50;;;;;;;7.55;100.00;-24027.84;5051423;28;20269;-75
2021/12/09 10:17:07;;;;;;;31.30;18.07;;;;;;;7.78;100.00;-24034.22;5053036;28;20190;-76
2021/12/09 10:19:36;;;;;;;36.57;17.77;;;;;;;7.54;100.00;-24027.56;5053134;28;20178;-75
2021/12/09 10:22:16;;;;;;;33.00;19.67;;;;;;;7.82;100.00;-24035.47;5053285;28;20585;-75
2021/12/09 10:24:43;;;;;;;31.87;18.30;;;;;;;7.48;100.00;-24025.84;5051812;28;20587;-75
2021/12/09 10:27:18;;;;;;;28.33;17.87;;;;;;;8.05;100.00;-24041.84;5053290;28;20248;-75
2021/12/09 10:29:46;;;;;;;30.80;19.30;;;;;;;8.04;100.00;-24041.56;5052909;28;20154;-74
2021/12/09 10:32:19;;;;;;;33.30;19.97;;;;;;;7.66;100.00;-24030.81;5052847;28;20225;-75
2021/12/09 10:34:47;;;;;;;34.53;20.80;;;;;;;7.58;100.00;-24028.69;5050650;28;20515;-75
2021/12/09 10:37:34;;;;;;;34.47;19.90;;;;;;;8.09;100.00;-24042.84;5051630;28;20206;-75
2021/12/09 10:40:08;;;;;;;39.57;23.27;;;;;;;7.81;100.00;-24035.22;5051530;28;20625;-75
2021/12/09 10:42:37;;;;;;;47.17;24.43;;;;;;;7.90;100.00;-24037.75;5052127;28;20213;-75
2021/12/09 10:45:28;;;;;;;41.23;24.87;;;;;;;8.21;100.00;-24046.41;5052973;28;20729;-75
2021/12/09 10:51:25;;;;;;;62.97;32.47;;;;;;;7.86;100.00;-24036.63;5052395;28;20185;-75
2021/12/09 10:53:47;;;;;;;59.17;30.37;;;;;;;7.51;100.00;-24026.84;5050657;28;20231;-75
2021/12/09 10:56:23;;;;;;;59.80;31.53;;;;;;;7.34;100.00;-24021.88;5050749;28;20174;-74
2021/12/09 10:58:48;;;;;;;51.73;31.60;;;;;;;7.04;100.00;-24013.50;5052061;28;20181;-76
2021/12/09 11:01:19;;;;;;;53.40;30.93;;;;;;;7.43;100.00;-24024.44;5052111;28;20171;-76
2021/12/09 11:03:49;;;;;;;56.00;30.90;;;;;;;7.27;100.00;-24019.91;5052461;28;20639;-74
2021/12/09 11:06:22;;;;;;;55.00;29.83;;;;;;;8.00;100.00;-24040.44;5055753;28;20257;-74
2021/12/09 11:08:50;;;;;;;52.60;31.53;;;;;;;8.10;100.00;-24043.28;5064948;28;20186;-72
2021/12/09 11:11:30;;;;;;;49.07;29.63;;;;;;;8.18;100.00;-24045.41;5060344;28;20186;-73
2021/12/09 11:14:13;;;;;;;50.67;29.33;;;;;;;7.96;100.00;-24039.31;5054981;28;20320;-75